sensor_id;sensor_type;location;lat;lon;timestamp;P1;durP1;ratioP1;P2;durP2;ratioP2
9222;SDS011;7557;51.698;3.942;2023-04-19T00:01:15;11.60;;;10.50;;
9222;SDS011;7557;51.698;3.942;2023-04-19T00:03:44;12.20;;;11.00;;
9222;SDS011;7557;51.698;3.942;2023-04-19T00:06:11;12.87;;;11.57;;
9222;SDS011;7557;51.698;3.942;2023-04-19T00:08:40;12.60;;;11.40;;
9222;SDS011;7557;51.698;3.942;2023-04-19T00:11:09;12.87;;;11.77;;
9222;SDS011;7557;51.698;3.942;2023-04-19T00:13:38;15.20;;;11.80;;
9222;SDS011;7557;51.698;3.942;2023-04-19T00:16:06;11.77;;;10.67;;
9222;SDS011;7557;51.698;3.942;2023-04-19T00:18:33;12.77;;;11.57;;
9222;SDS011;7557;51.698;3.942;2023-04-19T00:21:03;12.77;;;11.57;;
9222;SDS011;7557;51.698;3.942;2023-04-19T00:23:31;12.43;;;11.33;;
9222;SDS011;7557;51.698;3.942;2023-04-19T00:26:01;14.10;;;12.73;;
9222;SDS011;7557;51.698;3.942;2023-04-19T00:28:29;13.83;;;12.50;;
9222;SDS011;7557;51.698;3.942;2023-04-19T00:30:58;13.50;;;12.27;;
9222;SDS011;7557;51.698;3.942;2023-04-19T00:33:26;12.73;;;11.63;;
9222;SDS011;7557;51.698;3.942;2023-04-19T00:35:53;13.90;;;12.43;;
9222;SDS011;7557;51.698;3.942;2023-04-19T00:38:21;13.27;;;11.97;;
9222;SDS011;7557;51.698;3.942;2023-04-19T00:40:49;13.23;;;12.13;;
9222;SDS011;7557;51.698;3.942;2023-04-19T00:43:16;13.43;;;12.13;;
9222;SDS011;7557;51.698;3.942;2023-04-19T00:45:44;15.57;;;14.03;;
9222;SDS011;7557;51.698;3.942;2023-04-19T00:48:15;14.73;;;13.27;;
9222;SDS011;7557;51.698;3.942;2023-04-19T00:50:43;13.70;;;12.33;;
9222;SDS011;7557;51.698;3.942;2023-04-19T00:53:11;14.17;;;12.87;;
9222;SDS011;7557;51.698;3.942;2023-04-19T00:55:38;14.50;;;13.10;;
9222;SDS011;7557;51.698;3.942;2023-04-19T00:58:06;16.13;;;13.83;;
9222;SDS011;7557;51.698;3.942;2023-04-19T01:00:34;15.80;;;14.20;;
9222;SDS011;7557;51.698;3.942;2023-04-19T01:03:02;14.97;;;13.63;;
9222;SDS011;7557;51.698;3.942;2023-04-19T01:05:35;14.53;;;13.13;;
9222;SDS011;7557;51.698;3.942;2023-04-19T01:08:03;15.20;;;13.43;;
9222;SDS011;7557;51.698;3.942;2023-04-19T01:10:32;17.00;;;15.00;;
9222;SDS011;7557;51.698;3.942;2023-04-19T01:13:00;14.93;;;13.47;;
9222;SDS011;7557;51.698;3.942;2023-04-19T01:15:27;16.93;;;15.23;;
9222;SDS011;7557;51.698;3.942;2023-04-19T01:17:56;17.27;;;13.67;;
9222;SDS011;7557;51.698;3.942;2023-04-19T01:20:24;15.60;;;14.20;;
9222;SDS011;7557;51.698;3.942;2023-04-19T01:22:53;15.60;;;13.70;;
9222;SDS011;7557;51.698;3.942;2023-04-19T01:25:21;15.83;;;14.30;;
9222;SDS011;7557;51.698;3.942;2023-04-19T01:27:48;15.47;;;13.87;;
9222;SDS011;7557;51.698;3.942;2023-04-19T01:30:16;15.20;;;13.70;;
9222;SDS011;7557;51.698;3.942;2023-04-19T01:32:43;15.00;;;13.53;;
9222;SDS011;7557;51.698;3.942;2023-04-19T01:35:11;16.80;;;14.87;;
9222;SDS011;7557;51.698;3.942;2023-04-19T01:37:38;15.57;;;14.07;;
9222;SDS011;7557;51.698;3.942;2023-04-19T01:40:08;16.00;;;14.30;;
9222;SDS011;7557;51.698;3.942;2023-04-19T01:42:36;16.67;;;14.03;;
9222;SDS011;7557;51.698;3.942;2023-04-19T01:45:04;15.97;;;14.37;;
9222;SDS011;7557;51.698;3.942;2023-04-19T01:47:32;16.27;;;14.53;;
9222;SDS011;7557;51.698;3.942;2023-04-19T01:50:00;15.53;;;13.93;;
9222;SDS011;7557;51.698;3.942;2023-04-19T01:52:27;17.37;;;15.10;;
9222;SDS011;7557;51.698;3.942;2023-04-19T01:54:55;15.80;;;14.03;;
9222;SDS011;7557;51.698;3.942;2023-04-19T01:57:24;17.70;;;14.97;;
9222;SDS011;7557;51.698;3.942;2023-04-19T01:59:51;16.63;;;14.93;;
9222;SDS011;7557;51.698;3.942;2023-04-19T02:02:19;16.57;;;14.77;;
9222;SDS011;7557;51.698;3.942;2023-04-19T02:04:46;15.40;;;13.87;;
9222;SDS011;7557;51.698;3.942;2023-04-19T02:07:14;14.93;;;13.40;;
9222;SDS011;7557;51.698;3.942;2023-04-19T02:09:41;17.57;;;15.10;;
9222;SDS011;7557;51.698;3.942;2023-04-19T02:12:09;17.77;;;16.07;;
9222;SDS011;7557;51.698;3.942;2023-04-19T02:14:38;19.10;;;15.47;;
9222;SDS011;7557;51.698;3.942;2023-04-19T02:17:05;18.20;;;15.43;;
9222;SDS011;7557;51.698;3.942;2023-04-19T02:19:33;17.63;;;15.77;;
9222;SDS011;7557;51.698;3.942;2023-04-19T02:22:00;17.60;;;14.87;;
9222;SDS011;7557;51.698;3.942;2023-04-19T02:24:28;18.53;;;15.47;;
9222;SDS011;7557;51.698;3.942;2023-04-19T02:26:55;16.73;;;14.47;;
9222;SDS011;7557;51.698;3.942;2023-04-19T02:29:23;17.60;;;15.50;;
9222;SDS011;7557;51.698;3.942;2023-04-19T02:31:52;16.70;;;14.93;;
9222;SDS011;7557;51.698;3.942;2023-04-19T02:34:19;16.30;;;14.37;;
9222;SDS011;7557;51.698;3.942;2023-04-19T02:36:47;16.87;;;15.07;;
9222;SDS011;7557;51.698;3.942;2023-04-19T02:39:15;17.37;;;15.67;;
9222;SDS011;7557;51.698;3.942;2023-04-19T02:41:42;20.27;;;15.97;;
9222;SDS011;7557;51.698;3.942;2023-04-19T02:44:10;17.07;;;15.27;;
9222;SDS011;7557;51.698;3.942;2023-04-19T02:46:38;19.80;;;15.40;;
9222;SDS011;7557;51.698;3.942;2023-04-19T02:49:07;16.70;;;15.00;;
9222;SDS011;7557;51.698;3.942;2023-04-19T02:51:34;18.27;;;16.07;;
9222;SDS011;7557;51.698;3.942;2023-04-19T02:54:02;18.27;;;16.40;;
9222;SDS011;7557;51.698;3.942;2023-04-19T02:56:30;18.97;;;16.97;;
9222;SDS011;7557;51.698;3.942;2023-04-19T02:58:59;17.63;;;15.73;;
9222;SDS011;7557;51.698;3.942;2023-04-19T03:01:27;17.40;;;15.60;;
9222;SDS011;7557;51.698;3.942;2023-04-19T03:03:55;20.80;;;17.87;;
9222;SDS011;7557;51.698;3.942;2023-04-19T03:06:24;19.97;;;17.00;;
9222;SDS011;7557;51.698;3.942;2023-04-19T03:08:51;18.67;;;16.57;;
9222;SDS011;7557;51.698;3.942;2023-04-19T03:11:19;20.13;;;17.93;;
9222;SDS011;7557;51.698;3.942;2023-04-19T03:13:47;21.07;;;17.47;;
9222;SDS011;7557;51.698;3.942;2023-04-19T03:16:14;21.37;;;17.33;;
9222;SDS011;7557;51.698;3.942;2023-04-19T03:18:42;19.70;;;17.00;;
9222;SDS011;7557;51.698;3.942;2023-04-19T03:21:10;20.27;;;16.87;;
9222;SDS011;7557;51.698;3.942;2023-04-19T03:23:39;18.87;;;16.77;;
9222;SDS011;7557;51.698;3.942;2023-04-19T03:26:06;21.27;;;17.40;;
9222;SDS011;7557;51.698;3.942;2023-04-19T03:28:34;16.63;;;14.87;;
9222;SDS011;7557;51.698;3.942;2023-04-19T03:31:01;19.70;;;16.53;;
9222;SDS011;7557;51.698;3.942;2023-04-19T03:33:29;17.43;;;15.50;;
9222;SDS011;7557;51.698;3.942;2023-04-19T03:35:56;18.87;;;15.87;;
9222;SDS011;7557;51.698;3.942;2023-04-19T03:38:24;22.93;;;16.67;;
9222;SDS011;7557;51.698;3.942;2023-04-19T03:40:53;17.90;;;16.10;;
9222;SDS011;7557;51.698;3.942;2023-04-19T03:43:21;19.37;;;17.13;;
9222;SDS011;7557;51.698;3.942;2023-04-19T03:45:50;18.93;;;16.20;;
9222;SDS011;7557;51.698;3.942;2023-04-19T03:48:19;16.83;;;15.03;;
9222;SDS011;7557;51.698;3.942;2023-04-19T03:50:46;17.70;;;15.90;;
9222;SDS011;7557;51.698;3.942;2023-04-19T03:53:14;20.57;;;16.67;;
9222;SDS011;7557;51.698;3.942;2023-04-19T03:55:43;16.07;;;14.37;;
9222;SDS011;7557;51.698;3.942;2023-04-19T03:58:12;17.30;;;14.87;;
9222;SDS011;7557;51.698;3.942;2023-04-19T04:00:39;15.83;;;13.97;;
9222;SDS011;7557;51.698;3.942;2023-04-19T04:03:07;20.00;;;15.30;;
9222;SDS011;7557;51.698;3.942;2023-04-19T04:05:34;17.80;;;14.90;;
9222;SDS011;7557;51.698;3.942;2023-04-19T04:08:02;15.73;;;14.10;;
9222;SDS011;7557;51.698;3.942;2023-04-19T04:10:30;19.13;;;14.83;;
9222;SDS011;7557;51.698;3.942;2023-04-19T04:12:57;17.20;;;15.10;;
9222;SDS011;7557;51.698;3.942;2023-04-19T04:15:27;16.33;;;13.47;;
9222;SDS011;7557;51.698;3.942;2023-04-19T04:17:55;16.17;;;13.97;;
9222;SDS011;7557;51.698;3.942;2023-04-19T04:20:22;16.97;;;14.40;;
9222;SDS011;7557;51.698;3.942;2023-04-19T04:22:50;17.57;;;14.93;;
9222;SDS011;7557;51.698;3.942;2023-04-19T04:25:17;14.83;;;13.30;;
9222;SDS011;7557;51.698;3.942;2023-04-19T04:27:45;16.17;;;13.90;;
9222;SDS011;7557;51.698;3.942;2023-04-19T04:30:13;14.53;;;13.00;;
9222;SDS011;7557;51.698;3.942;2023-04-19T04:32:42;15.47;;;13.83;;
9222;SDS011;7557;51.698;3.942;2023-04-19T04:35:11;12.63;;;11.43;;
9222;SDS011;7557;51.698;3.942;2023-04-19T04:37:38;14.67;;;12.70;;
9222;SDS011;7557;51.698;3.942;2023-04-19T04:40:06;17.57;;;13.97;;
9222;SDS011;7557;51.698;3.942;2023-04-19T04:42:34;16.60;;;14.23;;
9222;SDS011;7557;51.698;3.942;2023-04-19T04:45:01;16.43;;;13.67;;
9222;SDS011;7557;51.698;3.942;2023-04-19T04:47:30;18.10;;;13.27;;
9222;SDS011;7557;51.698;3.942;2023-04-19T04:49:59;14.33;;;11.93;;
9222;SDS011;7557;51.698;3.942;2023-04-19T04:52:27;16.10;;;14.40;;
9222;SDS011;7557;51.698;3.942;2023-04-19T04:54:55;17.03;;;13.53;;
9222;SDS011;7557;51.698;3.942;2023-04-19T04:57:23;14.13;;;12.80;;
9222;SDS011;7557;51.698;3.942;2023-04-19T04:59:50;13.70;;;12.33;;
9222;SDS011;7557;51.698;3.942;2023-04-19T05:02:18;14.10;;;12.70;;
9222;SDS011;7557;51.698;3.942;2023-04-19T05:04:46;13.50;;;12.20;;
9222;SDS011;7557;51.698;3.942;2023-04-19T05:07:15;14.93;;;11.47;;
9222;SDS011;7557;51.698;3.942;2023-04-19T05:09:43;13.73;;;12.23;;
9222;SDS011;7557;51.698;3.942;2023-04-19T05:12:11;16.20;;;14.60;;
9222;SDS011;7557;51.698;3.942;2023-04-19T05:14:38;14.00;;;12.37;;
9222;SDS011;7557;51.698;3.942;2023-04-19T05:17:06;15.23;;;13.17;;
9222;SDS011;7557;51.698;3.942;2023-04-19T05:19:33;15.20;;;12.87;;
9222;SDS011;7557;51.698;3.942;2023-04-19T05:22:01;14.47;;;12.67;;
9222;SDS011;7557;51.698;3.942;2023-04-19T05:24:30;14.30;;;12.80;;
9222;SDS011;7557;51.698;3.942;2023-04-19T05:27:01;14.13;;;12.77;;
9222;SDS011;7557;51.698;3.942;2023-04-19T05:29:28;14.57;;;12.57;;
9222;SDS011;7557;51.698;3.942;2023-04-19T05:31:57;15.80;;;12.20;;
9222;SDS011;7557;51.698;3.942;2023-04-19T05:34:25;14.60;;;12.70;;
9222;SDS011;7557;51.698;3.942;2023-04-19T05:36:52;14.10;;;12.73;;
9222;SDS011;7557;51.698;3.942;2023-04-19T05:39:20;12.80;;;11.60;;
9222;SDS011;7557;51.698;3.942;2023-04-19T05:41:49;13.13;;;11.73;;
9222;SDS011;7557;51.698;3.942;2023-04-19T05:44:17;13.93;;;11.57;;
9222;SDS011;7557;51.698;3.942;2023-04-19T05:46:44;14.40;;;11.53;;
9222;SDS011;7557;51.698;3.942;2023-04-19T05:49:11;12.03;;;10.93;;
9222;SDS011;7557;51.698;3.942;2023-04-19T05:51:39;10.23;;;9.20;;
9222;SDS011;7557;51.698;3.942;2023-04-19T05:54:06;13.73;;;10.63;;
9222;SDS011;7557;51.698;3.942;2023-04-19T05:56:36;11.27;;;10.17;;
9222;SDS011;7557;51.698;3.942;2023-04-19T05:59:06;11.33;;;10.20;;
9222;SDS011;7557;51.698;3.942;2023-04-19T06:01:35;10.20;;;9.20;;
9222;SDS011;7557;51.698;3.942;2023-04-19T06:04:03;15.20;;;9.93;;
9222;SDS011;7557;51.698;3.942;2023-04-19T06:06:31;13.17;;;9.67;;
9222;SDS011;7557;51.698;3.942;2023-04-19T06:08:58;10.30;;;9.20;;
9222;SDS011;7557;51.698;3.942;2023-04-19T06:11:25;10.57;;;9.53;;
9222;SDS011;7557;51.698;3.942;2023-04-19T06:13:53;11.90;;;8.57;;
9222;SDS011;7557;51.698;3.942;2023-04-19T06:16:22;9.63;;;8.63;;
9222;SDS011;7557;51.698;3.942;2023-04-19T06:18:49;10.80;;;9.40;;
9222;SDS011;7557;51.698;3.942;2023-04-19T06:21:17;9.30;;;8.50;;
9222;SDS011;7557;51.698;3.942;2023-04-19T06:23:44;10.20;;;8.53;;
9222;SDS011;7557;51.698;3.942;2023-04-19T06:26:12;9.77;;;8.77;;
9222;SDS011;7557;51.698;3.942;2023-04-19T06:28:40;10.30;;;9.40;;
9222;SDS011;7557;51.698;3.942;2023-04-19T06:31:07;10.83;;;9.83;;
9222;SDS011;7557;51.698;3.942;2023-04-19T06:33:37;13.00;;;8.87;;
9222;SDS011;7557;51.698;3.942;2023-04-19T06:36:05;9.83;;;8.87;;
9222;SDS011;7557;51.698;3.942;2023-04-19T06:38:33;10.03;;;9.13;;
9222;SDS011;7557;51.698;3.942;2023-04-19T06:41:00;9.60;;;8.37;;
9222;SDS011;7557;51.698;3.942;2023-04-19T06:43:28;9.57;;;8.67;;
9222;SDS011;7557;51.698;3.942;2023-04-19T06:45:58;8.83;;;8.10;;
9222;SDS011;7557;51.698;3.942;2023-04-19T06:48:25;8.70;;;7.87;;
9222;SDS011;7557;51.698;3.942;2023-04-19T06:50:54;9.00;;;8.20;;
9222;SDS011;7557;51.698;3.942;2023-04-19T06:53:22;9.37;;;8.40;;
9222;SDS011;7557;51.698;3.942;2023-04-19T06:55:52;9.30;;;8.50;;
9222;SDS011;7557;51.698;3.942;2023-04-19T06:58:23;8.17;;;7.43;;
9222;SDS011;7557;51.698;3.942;2023-04-19T07:00:51;10.13;;;8.73;;
9222;SDS011;7557;51.698;3.942;2023-04-19T07:03:18;9.40;;;8.60;;
9222;SDS011;7557;51.698;3.942;2023-04-19T07:05:46;10.35;;;8.98;;
9222;SDS011;7557;51.698;3.942;2023-04-19T07:08:15;7.87;;;7.13;;
9222;SDS011;7557;51.698;3.942;2023-04-19T07:10:42;9.73;;;8.40;;
9222;SDS011;7557;51.698;3.942;2023-04-19T07:13:10;8.70;;;7.90;;
9222;SDS011;7557;51.698;3.942;2023-04-19T07:15:37;9.20;;;8.38;;
9222;SDS011;7557;51.698;3.942;2023-04-19T07:18:05;9.57;;;8.45;;
9222;SDS011;7557;51.698;3.942;2023-04-19T07:20:34;9.48;;;8.68;;
9222;SDS011;7557;51.698;3.942;2023-04-19T07:23:01;8.10;;;7.30;;
9222;SDS011;7557;51.698;3.942;2023-04-19T07:25:30;9.23;;;8.33;;
9222;SDS011;7557;51.698;3.942;2023-04-19T07:27:58;8.37;;;7.57;;
9222;SDS011;7557;51.698;3.942;2023-04-19T07:30:25;8.90;;;8.00;;
9222;SDS011;7557;51.698;3.942;2023-04-19T07:32:53;9.35;;;8.25;;
9222;SDS011;7557;51.698;3.942;2023-04-19T07:35:20;9.17;;;8.37;;
9222;SDS011;7557;51.698;3.942;2023-04-19T07:37:48;8.13;;;7.30;;
9222;SDS011;7557;51.698;3.942;2023-04-19T07:40:16;9.37;;;6.80;;
9222;SDS011;7557;51.698;3.942;2023-04-19T07:42:45;8.53;;;7.73;;
9222;SDS011;7557;51.698;3.942;2023-04-19T07:45:12;7.83;;;7.03;;
9222;SDS011;7557;51.698;3.942;2023-04-19T07:47:40;7.68;;;7.07;;
9222;SDS011;7557;51.698;3.942;2023-04-19T07:50:08;7.28;;;6.65;;
9222;SDS011;7557;51.698;3.942;2023-04-19T07:52:36;7.90;;;7.30;;
9222;SDS011;7557;51.698;3.942;2023-04-19T07:55:06;7.65;;;6.97;;
9222;SDS011;7557;51.698;3.942;2023-04-19T07:57:34;8.90;;;8.05;;
9222;SDS011;7557;51.698;3.942;2023-04-19T08:00:04;8.80;;;7.78;;
9222;SDS011;7557;51.698;3.942;2023-04-19T08:02:34;7.60;;;6.90;;
9222;SDS011;7557;51.698;3.942;2023-04-19T08:05:02;7.40;;;6.72;;
9222;SDS011;7557;51.698;3.942;2023-04-19T08:07:30;7.95;;;7.15;;
9222;SDS011;7557;51.698;3.942;2023-04-19T08:09:57;8.35;;;7.57;;
9222;SDS011;7557;51.698;3.942;2023-04-19T08:12:24;7.10;;;6.53;;
9222;SDS011;7557;51.698;3.942;2023-04-19T08:14:52;7.80;;;7.07;;
9222;SDS011;7557;51.698;3.942;2023-04-19T08:17:21;7.60;;;6.97;;
9222;SDS011;7557;51.698;3.942;2023-04-19T08:19:49;7.88;;;7.35;;
9222;SDS011;7557;51.698;3.942;2023-04-19T08:22:18;7.78;;;7.05;;
9222;SDS011;7557;51.698;3.942;2023-04-19T08:24:47;8.55;;;7.43;;
9222;SDS011;7557;51.698;3.942;2023-04-19T08:27:15;7.97;;;7.30;;
9222;SDS011;7557;51.698;3.942;2023-04-19T08:29:43;9.07;;;8.27;;
9222;SDS011;7557;51.698;3.942;2023-04-19T08:32:11;8.40;;;7.72;;
9222;SDS011;7557;51.698;3.942;2023-04-19T08:34:40;7.53;;;6.95;;
9222;SDS011;7557;51.698;3.942;2023-04-19T08:37:07;7.40;;;6.88;;
9222;SDS011;7557;51.698;3.942;2023-04-19T08:39:35;7.82;;;7.13;;
9222;SDS011;7557;51.698;3.942;2023-04-19T08:42:03;8.05;;;7.28;;
9222;SDS011;7557;51.698;3.942;2023-04-19T08:44:32;7.53;;;6.82;;
9222;SDS011;7557;51.698;3.942;2023-04-19T08:47:02;10.32;;;7.38;;
9222;SDS011;7557;51.698;3.942;2023-04-19T08:49:30;7.40;;;6.70;;
9222;SDS011;7557;51.698;3.942;2023-04-19T08:52:01;9.10;;;8.15;;
9222;SDS011;7557;51.698;3.942;2023-04-19T08:54:30;8.00;;;7.30;;
9222;SDS011;7557;51.698;3.942;2023-04-19T08:56:58;8.65;;;7.85;;
9222;SDS011;7557;51.698;3.942;2023-04-19T08:59:26;6.97;;;6.25;;
9222;SDS011;7557;51.698;3.942;2023-04-19T09:01:55;8.00;;;7.28;;
9222;SDS011;7557;51.698;3.942;2023-04-19T09:04:23;7.28;;;6.57;;
9222;SDS011;7557;51.698;3.942;2023-04-19T09:06:51;6.95;;;6.35;;
9222;SDS011;7557;51.698;3.942;2023-04-19T09:09:21;7.57;;;6.93;;
9222;SDS011;7557;51.698;3.942;2023-04-19T09:11:50;7.78;;;7.18;;
9222;SDS011;7557;51.698;3.942;2023-04-19T09:14:18;6.90;;;6.20;;
9222;SDS011;7557;51.698;3.942;2023-04-19T09:16:47;7.63;;;6.40;;
9222;SDS011;7557;51.698;3.942;2023-04-19T09:19:16;7.57;;;6.97;;
9222;SDS011;7557;51.698;3.942;2023-04-19T09:21:44;6.03;;;5.55;;
9222;SDS011;7557;51.698;3.942;2023-04-19T09:24:11;8.07;;;7.32;;
9222;SDS011;7557;51.698;3.942;2023-04-19T09:26:40;6.85;;;6.35;;
9222;SDS011;7557;51.698;3.942;2023-04-19T09:29:19;6.88;;;6.28;;
9222;SDS011;7557;51.698;3.942;2023-04-19T09:31:55;7.15;;;6.55;;
9222;SDS011;7557;51.698;3.942;2023-04-19T09:34:23;7.32;;;6.57;;
9222;SDS011;7557;51.698;3.942;2023-04-19T09:36:53;7.72;;;6.95;;
9222;SDS011;7557;51.698;3.942;2023-04-19T09:39:27;8.98;;;7.97;;
9222;SDS011;7557;51.698;3.942;2023-04-19T09:41:58;8.88;;;7.13;;
9222;SDS011;7557;51.698;3.942;2023-04-19T09:44:26;7.10;;;6.50;;
9222;SDS011;7557;51.698;3.942;2023-04-19T09:46:54;5.70;;;5.20;;
9222;SDS011;7557;51.698;3.942;2023-04-19T09:49:22;6.68;;;6.18;;
9222;SDS011;7557;51.698;3.942;2023-04-19T09:51:51;7.45;;;6.93;;
9222;SDS011;7557;51.698;3.942;2023-04-19T09:54:19;6.97;;;6.38;;
9222;SDS011;7557;51.698;3.942;2023-04-19T09:56:48;7.60;;;6.88;;
9222;SDS011;7557;51.698;3.942;2023-04-19T09:59:18;6.00;;;5.57;;
9222;SDS011;7557;51.698;3.942;2023-04-19T10:01:46;6.60;;;6.10;;
9222;SDS011;7557;51.698;3.942;2023-04-19T10:04:18;6.30;;;5.90;;
9222;SDS011;7557;51.698;3.942;2023-04-19T10:06:47;6.47;;;5.85;;
9222;SDS011;7557;51.698;3.942;2023-04-19T10:09:16;6.15;;;5.65;;
9222;SDS011;7557;51.698;3.942;2023-04-19T10:11:48;6.05;;;5.55;;
9222;SDS011;7557;51.698;3.942;2023-04-19T10:14:18;5.72;;;5.30;;
9222;SDS011;7557;51.698;3.942;2023-04-19T10:16:48;5.78;;;5.38;;
9222;SDS011;7557;51.698;3.942;2023-04-19T10:19:17;5.47;;;5.10;;
9222;SDS011;7557;51.698;3.942;2023-04-19T10:21:46;5.68;;;4.95;;
9222;SDS011;7557;51.698;3.942;2023-04-19T10:24:15;5.22;;;4.80;;
9222;SDS011;7557;51.698;3.942;2023-04-19T10:27:04;5.95;;;5.25;;
9222;SDS011;7557;51.698;3.942;2023-04-19T10:29:55;4.72;;;4.43;;
9222;SDS011;7557;51.698;3.942;2023-04-19T10:32:25;4.75;;;4.45;;
9222;SDS011;7557;51.698;3.942;2023-04-19T10:34:53;4.93;;;4.53;;
9222;SDS011;7557;51.698;3.942;2023-04-19T10:37:26;3.75;;;3.35;;
9222;SDS011;7557;51.698;3.942;2023-04-19T10:39:54;5.47;;;4.68;;
9222;SDS011;7557;51.698;3.942;2023-04-19T10:42:21;4.82;;;4.43;;
9222;SDS011;7557;51.698;3.942;2023-04-19T10:47:55;4.28;;;3.97;;
9222;SDS011;7557;51.698;3.942;2023-04-19T10:50:22;3.88;;;3.58;;
9222;SDS011;7557;51.698;3.942;2023-04-19T10:52:51;4.00;;;3.78;;
9222;SDS011;7557;51.698;3.942;2023-04-19T10:55:18;4.47;;;4.13;;
9222;SDS011;7557;51.698;3.942;2023-04-19T10:57:59;4.13;;;3.70;;
9222;SDS011;7557;51.698;3.942;2023-04-19T11:00:28;4.40;;;4.00;;
9222;SDS011;7557;51.698;3.942;2023-04-19T11:02:59;5.32;;;3.83;;
9222;SDS011;7557;51.698;3.942;2023-04-19T11:08:42;4.15;;;3.95;;
9222;SDS011;7557;51.698;3.942;2023-04-19T11:11:11;3.35;;;3.05;;
9222;SDS011;7557;51.698;3.942;2023-04-19T11:13:40;3.70;;;3.50;;
9222;SDS011;7557;51.698;3.942;2023-04-19T11:16:08;3.58;;;3.30;;
9222;SDS011;7557;51.698;3.942;2023-04-19T11:18:38;4.93;;;3.47;;
9222;SDS011;7557;51.698;3.942;2023-04-19T11:21:05;6.03;;;3.80;;
9222;SDS011;7557;51.698;3.942;2023-04-19T11:23:33;3.63;;;3.40;;
9222;SDS011;7557;51.698;3.942;2023-04-19T11:26:00;3.40;;;3.15;;
9222;SDS011;7557;51.698;3.942;2023-04-19T11:28:28;3.25;;;3.05;;
9222;SDS011;7557;51.698;3.942;2023-04-19T11:30:55;3.72;;;3.40;;
9222;SDS011;7557;51.698;3.942;2023-04-19T11:33:23;3.28;;;3.08;;
9222;SDS011;7557;51.698;3.942;2023-04-19T11:35:53;3.67;;;3.38;;
9222;SDS011;7557;51.698;3.942;2023-04-19T11:38:20;3.83;;;3.50;;
9222;SDS011;7557;51.698;3.942;2023-04-19T11:40:53;4.18;;;2.78;;
9222;SDS011;7557;51.698;3.942;2023-04-19T11:43:30;3.72;;;2.10;;
9222;SDS011;7557;51.698;3.942;2023-04-19T11:46:03;3.22;;;3.00;;
9222;SDS011;7557;51.698;3.942;2023-04-19T11:48:31;4.72;;;2.70;;
9222;SDS011;7557;51.698;3.942;2023-04-19T11:51:01;2.65;;;2.50;;
9222;SDS011;7557;51.698;3.942;2023-04-19T11:53:29;2.78;;;2.63;;
9222;SDS011;7557;51.698;3.942;2023-04-19T11:56:02;4.38;;;3.08;;
9222;SDS011;7557;51.698;3.942;2023-04-19T11:58:31;3.15;;;2.88;;
9222;SDS011;7557;51.698;3.942;2023-04-19T12:01:04;2.85;;;2.50;;
9222;SDS011;7557;51.698;3.942;2023-04-19T12:03:33;2.35;;;2.22;;
9222;SDS011;7557;51.698;3.942;2023-04-19T12:06:02;3.25;;;2.00;;
9222;SDS011;7557;51.698;3.942;2023-04-19T12:08:33;3.35;;;2.22;;
9222;SDS011;7557;51.698;3.942;2023-04-19T12:11:02;2.83;;;2.53;;
9222;SDS011;7557;51.698;3.942;2023-04-19T12:13:30;2.28;;;2.17;;
9222;SDS011;7557;51.698;3.942;2023-04-19T12:15:58;2.10;;;2.00;;
9222;SDS011;7557;51.698;3.942;2023-04-19T12:18:26;2.38;;;2.28;;
9222;SDS011;7557;51.698;3.942;2023-04-19T12:20:54;2.05;;;1.92;;
9222;SDS011;7557;51.698;3.942;2023-04-19T12:23:23;2.50;;;2.28;;
9222;SDS011;7557;51.698;3.942;2023-04-19T12:25:51;2.10;;;2.00;;
9222;SDS011;7557;51.698;3.942;2023-04-19T12:28:18;2.22;;;1.85;;
9222;SDS011;7557;51.698;3.942;2023-04-19T12:30:45;2.15;;;1.90;;
9222;SDS011;7557;51.698;3.942;2023-04-19T12:33:13;2.42;;;2.30;;
9222;SDS011;7557;51.698;3.942;2023-04-19T12:35:41;3.15;;;2.08;;
9222;SDS011;7557;51.698;3.942;2023-04-19T12:38:09;2.20;;;2.10;;
9222;SDS011;7557;51.698;3.942;2023-04-19T12:40:38;3.25;;;2.22;;
9222;SDS011;7557;51.698;3.942;2023-04-19T12:43:06;2.20;;;2.10;;
9222;SDS011;7557;51.698;3.942;2023-04-19T12:45:33;2.30;;;2.20;;
9222;SDS011;7557;51.698;3.942;2023-04-19T12:48:00;2.83;;;2.05;;
9222;SDS011;7557;51.698;3.942;2023-04-19T12:50:28;4.65;;;2.22;;
9222;SDS011;7557;51.698;3.942;2023-04-19T12:52:56;2.42;;;2.22;;
9222;SDS011;7557;51.698;3.942;2023-04-19T12:55:23;2.42;;;2.33;;
9222;SDS011;7557;51.698;3.942;2023-04-19T12:57:53;3.63;;;2.58;;
9222;SDS011;7557;51.698;3.942;2023-04-19T13:00:20;2.50;;;2.40;;
9222;SDS011;7557;51.698;3.942;2023-04-19T13:02:48;2.20;;;2.10;;
9222;SDS011;7557;51.698;3.942;2023-04-19T13:05:16;2.08;;;1.98;;
9222;SDS011;7557;51.698;3.942;2023-04-19T13:07:43;3.33;;;2.47;;
9222;SDS011;7557;51.698;3.942;2023-04-19T13:10:11;3.42;;;1.77;;
9222;SDS011;7557;51.698;3.942;2023-04-19T13:12:38;2.50;;;2.33;;
9222;SDS011;7557;51.698;3.942;2023-04-19T13:15:08;3.03;;;2.30;;
9222;SDS011;7557;51.698;3.942;2023-04-19T13:17:36;2.20;;;2.03;;
9222;SDS011;7557;51.698;3.942;2023-04-19T13:20:04;1.90;;;1.80;;
9222;SDS011;7557;51.698;3.942;2023-04-19T13:22:32;2.10;;;1.75;;
9222;SDS011;7557;51.698;3.942;2023-04-19T13:25:00;2.40;;;2.28;;
9222;SDS011;7557;51.698;3.942;2023-04-19T13:27:28;2.10;;;1.77;;
9222;SDS011;7557;51.698;3.942;2023-04-19T13:29:55;2.45;;;2.10;;
9222;SDS011;7557;51.698;3.942;2023-04-19T13:32:25;2.47;;;2.25;;
9222;SDS011;7557;51.698;3.942;2023-04-19T13:34:53;2.38;;;2.20;;
9222;SDS011;7557;51.698;3.942;2023-04-19T13:37:20;2.65;;;2.45;;
9222;SDS011;7557;51.698;3.942;2023-04-19T13:39:48;2.35;;;2.25;;
9222;SDS011;7557;51.698;3.942;2023-04-19T13:42:15;2.65;;;2.55;;
9222;SDS011;7557;51.698;3.942;2023-04-19T13:44:43;2.75;;;2.05;;
9222;SDS011;7557;51.698;3.942;2023-04-19T13:47:11;2.38;;;2.17;;
9222;SDS011;7557;51.698;3.942;2023-04-19T13:49:40;2.35;;;2.25;;
9222;SDS011;7557;51.698;3.942;2023-04-19T13:52:07;3.03;;;2.55;;
9222;SDS011;7557;51.698;3.942;2023-04-19T13:54:38;2.53;;;2.20;;
9222;SDS011;7557;51.698;3.942;2023-04-19T13:57:06;2.85;;;2.08;;
9222;SDS011;7557;51.698;3.942;2023-04-19T13:59:35;2.03;;;1.92;;
9222;SDS011;7557;51.698;3.942;2023-04-19T14:02:02;2.20;;;2.10;;
9222;SDS011;7557;51.698;3.942;2023-04-19T14:04:30;5.45;;;2.70;;
9222;SDS011;7557;51.698;3.942;2023-04-19T14:06:59;2.25;;;2.05;;
9222;SDS011;7557;51.698;3.942;2023-04-19T14:09:27;2.50;;;2.40;;
9222;SDS011;7557;51.698;3.942;2023-04-19T14:11:54;2.70;;;2.38;;
9222;SDS011;7557;51.698;3.942;2023-04-19T14:14:22;2.50;;;2.40;;
9222;SDS011;7557;51.698;3.942;2023-04-19T14:16:50;3.70;;;2.25;;
9222;SDS011;7557;51.698;3.942;2023-04-19T14:19:18;2.33;;;2.22;;
9222;SDS011;7557;51.698;3.942;2023-04-19T14:21:45;2.30;;;2.10;;
9222;SDS011;7557;51.698;3.942;2023-04-19T14:24:15;2.60;;;2.45;;
9222;SDS011;7557;51.698;3.942;2023-04-19T14:26:42;2.30;;;2.20;;
9222;SDS011;7557;51.698;3.942;2023-04-19T14:29:10;2.53;;;2.08;;
9222;SDS011;7557;51.698;3.942;2023-04-19T14:31:37;3.53;;;2.83;;
9222;SDS011;7557;51.698;3.942;2023-04-19T14:34:05;2.28;;;2.10;;
9222;SDS011;7557;51.698;3.942;2023-04-19T14:36:33;3.00;;;2.70;;
9222;SDS011;7557;51.698;3.942;2023-04-19T14:39:00;2.53;;;2.33;;
9222;SDS011;7557;51.698;3.942;2023-04-19T14:41:29;2.38;;;1.90;;
9222;SDS011;7557;51.698;3.942;2023-04-19T14:43:57;3.53;;;2.40;;
9222;SDS011;7557;51.698;3.942;2023-04-19T14:46:24;2.60;;;2.40;;
9222;SDS011;7557;51.698;3.942;2023-04-19T14:48:52;2.20;;;2.00;;
9222;SDS011;7557;51.698;3.942;2023-04-19T14:51:21;2.47;;;2.28;;
9222;SDS011;7557;51.698;3.942;2023-04-19T14:53:48;2.25;;;2.15;;
9222;SDS011;7557;51.698;3.942;2023-04-19T14:56:16;2.47;;;2.33;;
9222;SDS011;7557;51.698;3.942;2023-04-19T14:58:45;2.20;;;2.00;;
9222;SDS011;7557;51.698;3.942;2023-04-19T15:01:13;2.97;;;2.50;;
9222;SDS011;7557;51.698;3.942;2023-04-19T15:03:41;5.68;;;3.08;;
9222;SDS011;7557;51.698;3.942;2023-04-19T15:06:09;3.17;;;2.83;;
9222;SDS011;7557;51.698;3.942;2023-04-19T15:08:37;3.42;;;2.80;;
9222;SDS011;7557;51.698;3.942;2023-04-19T15:11:05;2.67;;;2.58;;
9222;SDS011;7557;51.698;3.942;2023-04-19T15:13:32;3.40;;;2.22;;
9222;SDS011;7557;51.698;3.942;2023-04-19T15:16:02;2.55;;;2.45;;